Time;durP1;ratioP1;P1;durP2;ratioP2;P2;SDS_P1;SDS_P2;PMS_P1;PMS_P2;Temp;Humidity;BMP_temperature;BMP_pressure;BME280_temperature;BME280_humidity;BME280_pressure;Samples;Min_cycle;Max_cycle;Signal;HPM_P1;HPM_P2
2023/01/17 00:02:25;;;;;;;7.40;0.83;;;2.70;99.90;;;;;;5070201;28;20425;-77
2023/01/17 00:10:26;;;;;;;8.60;1.03;;;2.70;99.90;;;;;;5066856;28;20067;-78
2023/01/17 00:13:02;;;;;;;7.43;1.27;;;2.90;99.90;;;;;;5070382;28;20044;-77
2023/01/17 00:15:29;;;;;;;6.87;2.23;;;2.70;99.90;;;;;;5071254;28;20036;-77
2023/01/17 00:17:56;;;;;;;10.90;2.20;;;2.70;99.90;;;;;;5052865;28;20049;-77
2023/01/17 00:26:25;;;;;;;15.70;2.20;;;2.60;99.90;;;;;;5027235;28;20163;-79
2023/01/17 01:35:53;;;;;;;7.47;1.00;;;2.60;99.90;;;;;;5065933;28;20049;-77
2023/01/17 01:38:24;;;;;;;11.20;2.93;;;2.70;99.90;;;;;;5066985;28;20044;-77
2023/01/17 01:40:54;;;;;;;7.63;1.65;;;2.70;99.90;;;;;;5068988;28;20098;-81
2023/01/17 01:44:05;;;;;;;8.83;1.20;;;2.80;99.90;;;;;;5067583;28;20066;-76
2023/01/17 01:46:40;;;;;;;14.00;1.50;;;2.80;99.90;;;;;;5065340;28;20676;-80
2023/01/17 01:49:23;;;;;;;14.10;1.90;;;3.10;99.90;;;;;;5067798;28;20098;-76
2023/01/17 01:52:00;;;;;;;12.97;2.30;;;3.00;99.90;;;;;;5064909;28;20080;-76
2023/01/17 01:54:36;;;;;;;11.10;1.73;;;2.70;99.90;;;;;;5069029;28;20108;-76
2023/01/17 01:57:05;;;;;;;9.93;1.73;;;2.70;99.90;;;;;;5068236;28;20653;-79
2023/01/17 01:59:32;;;;;;;11.90;2.00;;;2.70;99.90;;;;;;5069065;28;20044;-77
2023/01/17 02:01:58;;;;;;;12.03;1.97;;;2.80;99.90;;;;;;5066256;28;20114;-76
2023/01/17 02:04:26;;;;;;;12.63;2.40;;;3.00;99.90;;;;;;5067955;28;20406;-75
2023/01/17 02:07:02;;;;;;;10.27;1.80;;;2.90;99.90;;;;;;5068732;28;20133;-75
2023/01/17 02:09:28;;;;;;;10.10;1.80;;;2.90;99.90;;;;;;5068136;28;20508;-76
2023/01/17 02:11:54;;;;;;;15.00;2.10;;;3.00;99.90;;;;;;5067474;28;20091;-76
2023/01/17 02:14:21;;;;;;;8.80;1.67;;;3.00;99.90;;;;;;5068936;28;20375;-76
2023/01/17 02:17:02;;;;;;;13.23;2.03;;;3.10;99.90;;;;;;5067671;28;20040;-76
2023/01/17 02:19:43;;;;;;;8.00;1.30;;;3.10;99.90;;;;;;5068191;28;20496;-75
2023/01/17 02:22:40;;;;;;;12.03;1.93;;;3.10;99.90;;;;;;5068404;28;19920;-76
2023/01/17 02:25:29;;;;;;;9.57;1.33;;;3.10;99.90;;;;;;5038153;28;20135;-75
2023/01/17 02:28:32;;;;;;;11.67;1.70;;;3.20;99.90;;;;;;5064135;28;20044;-76
2023/01/17 02:31:13;;;;;;;16.50;11.80;;;3.00;99.90;;;;;;5068526;28;20044;-76
2023/01/17 02:33:51;;;;;;;9.70;1.73;;;3.10;99.90;;;;;;5066908;28;20048;-78
2023/01/17 02:36:31;;;;;;;9.50;1.63;;;3.00;99.90;;;;;;5067420;28;20056;-75
2023/01/17 02:39:22;;;;;;;13.87;1.87;;;3.00;99.90;;;;;;5050692;28;20056;-84
2023/01/17 02:41:53;;;;;;;;;;;3.00;99.90;;;;;;5066526;28;20055;-75
2023/01/17 02:44:19;;;;;;;10.40;1.80;;;3.00;99.90;;;;;;5068121;28;20230;-76
2023/01/17 02:46:53;;;;;;;12.97;2.10;;;3.30;99.90;;;;;;5066928;28;20045;-76
2023/01/17 02:49:24;;;;;;;13.87;2.10;;;3.10;99.90;;;;;;5067748;28;20040;-76
2023/01/17 02:52:04;;;;;;;79.05;71.55;;;3.10;99.90;;;;;;5069629;28;20039;-78
2023/01/17 02:55:05;;;;;;;8.32;1.50;;;3.10;99.90;;;;;;5070651;28;20053;-75
2023/01/17 02:58:02;;;;;;;6.73;1.70;;;2.80;99.90;;;;;;5069253;28;20368;-77
2023/01/17 03:00:43;;;;;;;11.17;1.37;;;2.70;99.90;;;;;;5080296;28;20040;-75
2023/01/17 03:03:38;;;;;;;11.00;1.98;;;2.60;99.90;;;;;;5069842;28;20060;-78
2023/01/17 03:06:19;;;;;;;12.00;2.00;;;2.60;99.90;;;;;;5070312;28;20052;-75
2023/01/17 03:08:47;;;;;;;7.97;1.60;;;2.60;99.90;;;;;;5069488;28;20410;-77
2023/01/17 03:11:13;;;;;;;10.57;1.77;;;2.60;99.90;;;;;;5071342;28;20414;-75
2023/01/17 03:13:40;;;;;;;13.00;1.90;;;2.70;99.90;;;;;;5071215;28;20444;-76
2023/01/17 03:16:12;;;;;;;9.10;1.90;;;2.70;99.90;;;;;;5070245;28;20596;-76
2023/01/17 03:18:38;;;;;;;7.10;1.90;;;2.70;99.90;;;;;;5071048;28;20182;-76
2023/01/17 03:21:04;;;;;;;9.63;6.23;;;2.70;99.90;;;;;;5070220;28;20499;-76
2023/01/17 03:23:29;;;;;;;10.57;1.90;;;2.70;99.90;;;;;;5071076;28;20093;-80
2023/01/17 03:25:55;;;;;;;18.50;4.83;;;2.80;99.90;;;;;;5071039;28;20080;-76
2023/01/17 03:28:21;;;;;;;6.83;1.83;;;2.70;99.90;;;;;;5071718;28;20040;-76
2023/01/17 03:30:46;;;;;;;13.77;2.77;;;2.60;99.90;;;;;;5071314;28;20053;-76
2023/01/17 03:33:12;;;;;;;13.10;2.63;;;2.60;99.90;;;;;;5069892;28;20059;-77
2023/01/17 03:35:38;;;;;;;6.40;1.70;;;2.60;99.90;;;;;;5071735;28;20072;-76
2023/01/17 03:38:03;;;;;;;13.20;2.10;;;2.50;99.90;;;;;;5070110;28;20044;-78
2023/01/17 03:40:29;;;;;;;12.43;2.20;;;2.60;99.90;;;;;;5071041;28;20090;-77
2023/01/17 03:42:54;;;;;;;16.03;2.43;;;2.50;99.90;;;;;;5070735;28;20125;-76
2023/01/17 03:45:20;;;;;;;10.87;1.93;;;2.50;99.90;;;;;;5069640;28;20052;-81
2023/01/17 03:47:46;;;;;;;10.60;1.57;;;2.50;99.90;;;;;;5071194;28;20057;-77
2023/01/17 03:50:12;;;;;;;14.97;1.57;;;2.50;99.90;;;;;;5068244;28;20298;-76
2023/01/17 03:52:38;;;;;;;8.93;1.80;;;2.50;99.90;;;;;;5070102;28;20055;-76
2023/01/17 03:55:04;;;;;;;9.97;1.73;;;2.40;99.90;;;;;;5069953;28;20057;-77
2023/01/17 03:57:30;;;;;;;14.57;2.10;;;2.40;99.90;;;;;;5070846;28;20048;-76
2023/01/17 03:59:56;;;;;;;9.37;1.93;;;2.30;99.90;;;;;;5069530;28;20230;-75
2023/01/17 04:02:23;;;;;;;7.60;1.13;;;2.40;99.90;;;;;;5068724;28;20041;-76
2023/01/17 04:04:49;;;;;;;10.03;1.93;;;2.40;99.90;;;;;;5071370;28;20063;-77
2023/01/17 04:07:15;;;;;;;16.20;2.10;;;2.40;99.90;;;;;;5071064;28;20052;-78
2023/01/17 04:09:40;;;;;;;9.43;1.63;;;2.30;99.90;;;;;;5071162;28;20055;-76
2023/01/17 04:12:06;;;;;;;14.63;2.37;;;2.40;99.90;;;;;;5069684;28;20040;-76
2023/01/17 04:14:32;;;;;;;11.70;1.63;;;2.30;99.90;;;;;;5070907;28;20490;-77
2023/01/17 04:16:58;;;;;;;10.03;1.93;;;2.30;99.90;;;;;;5067157;28;20040;-75
2023/01/17 04:19:24;;;;;;;9.07;1.73;;;2.30;99.90;;;;;;5070514;28;20392;-77
2023/01/17 04:21:50;;;;;;;8.97;1.90;;;2.40;99.90;;;;;;5070241;28;20574;-76
2023/01/17 04:24:15;;;;;;;11.07;2.03;;;2.40;99.90;;;;;;5069247;28;20041;-77
2023/01/17 04:26:41;;;;;;;11.13;2.27;;;2.30;99.90;;;;;;5068910;28;20143;-77
2023/01/17 04:29:07;;;;;;;13.87;10.37;;;2.40;99.90;;;;;;5070397;28;20074;-76
2023/01/17 04:31:33;;;;;;;10.80;1.73;;;2.30;99.90;;;;;;5069433;28;20517;-76
2023/01/17 04:33:58;;;;;;;14.30;5.37;;;2.30;99.90;;;;;;5068985;28;20049;-76
2023/01/17 04:36:24;;;;;;;15.90;1.73;;;2.20;99.90;;;;;;5069597;28;20048;-76
2023/01/17 04:38:50;;;;;;;12.80;1.70;;;2.20;99.90;;;;;;5070157;28;20414;-77
2023/01/17 04:41:15;;;;;;;13.20;1.70;;;2.20;99.90;;;;;;5068848;28;20051;-76
2023/01/17 04:43:41;;;;;;;10.50;1.70;;;2.20;99.90;;;;;;5069691;28;20148;-76
2023/01/17 04:46:09;;;;;;;13.80;1.57;;;2.20;99.90;;;;;;5068635;28;20063;-76
2023/01/17 04:48:35;;;;;;;8.67;1.30;;;2.10;99.90;;;;;;5069043;28;20052;-76
2023/01/17 04:51:03;;;;;;;11.33;2.10;;;2.00;99.90;;;;;;5068495;28;20445;-76
2023/01/17 04:53:29;;;;;;;12.43;2.00;;;2.10;99.90;;;;;;5050034;28;20136;-77
2023/01/17 04:55:55;;;;;;;7.40;1.10;;;2.10;99.90;;;;;;5070036;28;20041;-76
2023/01/17 04:58:21;;;;;;;10.47;1.63;;;2.10;99.90;;;;;;5067696;28;20047;-76
2023/01/17 05:00:49;;;;;;;6.43;1.33;;;2.00;99.90;;;;;;5062171;28;20045;-76
2023/01/17 05:03:19;;;;;;;8.83;1.80;;;1.90;99.90;;;;;;5066709;28;20084;-76
2023/01/17 05:05:45;;;;;;;7.70;2.10;;;1.90;99.90;;;;;;5069616;28;20084;-77
2023/01/17 05:08:11;;;;;;;8.33;1.40;;;1.90;99.90;;;;;;5066887;28;20481;-76
2023/01/17 05:10:36;;;;;;;6.60;1.50;;;1.90;99.90;;;;;;5084720;28;20142;-76
2023/01/17 05:13:02;;;;;;;14.37;3.07;;;1.90;99.90;;;;;;5053257;28;20033;-82
2023/01/17 05:15:29;;;;;;;8.17;1.13;;;2.10;99.90;;;;;;5068783;28;20048;-76
2023/01/17 05:17:55;;;;;;;12.60;4.93;;;1.80;99.90;;;;;;5069198;28;20529;-75
2023/01/17 05:20:24;;;;;;;9.07;2.10;;;1.80;99.90;;;;;;5069874;28;20049;-76
2023/01/17 05:22:55;;;;;;;4.50;1.03;;;1.80;99.90;;;;;;5066502;28;20162;-77
2023/01/17 05:25:26;;;;;;;6.25;1.02;;;1.70;99.90;;;;;;5067353;28;20502;-76
2023/01/17 05:27:52;;;;;;;7.38;1.20;;;1.50;99.90;;;;;;5067324;28;20484;-76
2023/01/17 05:30:18;;;;;;;12.30;1.10;;;1.40;99.90;;;;;;5065333;28;20052;-75
2023/01/17 05:32:48;;;;;;;7.93;1.40;;;1.30;99.90;;;;;;5067135;28;20388;-79
2023/01/17 05:35:15;;;;;;;12.33;1.20;;;1.40;99.90;;;;;;5069440;28;20040;-82
2023/01/17 05:37:47;;;;;;;5.47;1.07;;;1.20;99.90;;;;;;5071680;28;20114;-79
2023/01/17 05:40:17;;;;;;;9.83;1.00;;;1.50;99.90;;;;;;5068972;28;20186;-76
2023/01/17 05:42:50;;;;;;;7.17;1.20;;;1.10;99.90;;;;;;5067551;28;20056;-76
2023/01/17 05:45:16;;;;;;;6.80;1.37;;;1.20;99.90;;;;;;5068605;28;20441;-76
2023/01/17 05:47:43;;;;;;;8.67;1.40;;;1.50;99.90;;;;;;5069173;28;20061;-76
2023/01/17 05:50:11;;;;;;;5.93;1.00;;;1.30;99.90;;;;;;5066349;28;20044;-75
2023/01/17 05:52:36;;;;;;;8.47;1.10;;;1.20;99.90;;;;;;5067083;28;20550;-75
2023/01/17 05:55:02;;;;;;;8.43;1.30;;;1.20;99.90;;;;;;5066809;28;20128;-77
2023/01/17 05:57:28;;;;;;;8.13;1.23;;;1.10;99.90;;;;;;5067649;28;20105;-75
2023/01/17 05:59:54;;;;;;;8.70;2.20;;;1.50;99.90;;;;;;5068938;28;20056;-75
2023/01/17 06:02:19;;;;;;;12.20;2.47;;;1.10;99.90;;;;;;5047439;28;20436;-76
2023/01/17 06:04:46;;;;;;;15.60;2.70;;;1.10;99.90;;;;;;5068648;28;20080;-76
2023/01/17 06:07:12;;;;;;;4.67;1.77;;;1.20;99.90;;;;;;5060630;28;20570;-75
2023/01/17 06:09:37;;;;;;;9.03;1.30;;;1.10;99.90;;;;;;5047972;28;20044;-82
2023/01/17 06:12:03;;;;;;;7.67;0.90;;;1.20;99.90;;;;;;5046650;28;20140;-76
2023/01/17 06:14:29;;;;;;;11.03;1.50;;;1.20;99.90;;;;;;5065516;28;20508;-75
2023/01/17 06:16:55;;;;;;;9.10;1.60;;;1.20;99.90;;;;;;5060936;28;20049;-80
2023/01/17 06:19:20;;;;;;;6.63;1.40;;;1.10;99.90;;;;;;5068306;28;20386;-76
2023/01/17 06:21:46;;;;;;;5.20;1.10;;;1.10;99.90;;;;;;5064829;28;20048;-77
2023/01/17 06:24:12;;;;;;;7.87;1.10;;;1.20;99.90;;;;;;5065393;28;20048;-76
2023/01/17 06:26:37;;;;;;;10.23;1.50;;;1.10;99.90;;;;;;5065134;28;20060;-75
2023/01/17 06:29:03;;;;;;;7.90;1.13;;;1.10;99.90;;;;;;5065405;28;20060;-76
2023/01/17 06:31:28;;;;;;;6.50;1.30;;;1.00;99.90;;;;;;5068072;28;20052;-79
2023/01/17 06:33:54;;;;;;;7.37;1.53;;;1.00;99.90;;;;;;5068005;28;20094;-75
2023/01/17 06:36:20;;;;;;;8.93;1.20;;;1.30;99.90;;;;;;5066198;28;20055;-76
2023/01/17 06:38:50;;;;;;;7.47;1.17;;;1.10;99.90;;;;;;5073305;28;20048;-76
2023/01/17 06:41:15;;;;;;;9.87;1.70;;;1.10;99.90;;;;;;5066899;28;20045;-76
2023/01/17 06:43:41;;;;;;;7.53;0.80;;;1.10;99.90;;;;;;5067468;28;20048;-76
2023/01/17 06:46:07;;;;;;;10.20;1.37;;;1.10;99.90;;;;;;5067909;28;20052;-75
2023/01/17 06:48:32;;;;;;;9.40;0.87;;;1.00;99.90;;;;;;5067448;28;20049;-77
2023/01/17 06:50:58;;;;;;;9.50;0.90;;;0.90;99.90;;;;;;5067816;28;20065;-75
2023/01/17 06:53:24;;;;;;;9.30;1.30;;;0.80;99.90;;;;;;5067919;28;20741;-75
2023/01/17 06:55:51;;;;;;;4.97;0.97;;;0.90;99.90;;;;;;5068215;28;20052;-75
2023/01/17 06:58:17;;;;;;;9.97;1.23;;;0.80;99.90;;;;;;5068058;28;20084;-75
2023/01/17 07:00:43;;;;;;;7.47;1.30;;;0.80;99.90;;;;;;5066415;28;20091;-77
2023/01/17 07:03:18;;;;;;;8.90;1.03;;;1.40;99.90;;;;;;5067458;28;20052;-75
2023/01/17 07:05:44;;;;;;;7.00;0.90;;;0.90;99.90;;;;;;5067046;28;20147;-75
2023/01/17 07:08:10;;;;;;;6.07;1.00;;;0.70;99.90;;;;;;5064574;28;20123;-75
2023/01/17 07:10:35;;;;;;;10.77;0.77;;;1.00;99.90;;;;;;5066854;28;20493;-80
2023/01/17 07:13:01;;;;;;;7.07;1.10;;;0.70;99.90;;;;;;5067444;28;20102;-75
2023/01/17 07:15:27;;;;;;;6.80;0.90;;;0.60;99.90;;;;;;5068203;28;20048;-76
2023/01/17 07:17:52;;;;;;;3.87;0.80;;;0.60;99.90;;;;;;5067754;28;20045;-76
2023/01/17 07:20:18;;;;;;;5.37;0.97;;;0.60;99.90;;;;;;5068050;28;20036;-78
2023/01/17 07:22:44;;;;;;;5.57;0.87;;;0.60;99.90;;;;;;5066310;28;20425;-77
2023/01/17 07:25:10;;;;;;;7.87;0.97;;;0.70;99.90;;;;;;5066842;28;20393;-79
2023/01/17 07:27:35;;;;;;;7.63;0.83;;;0.70;99.90;;;;;;5067477;28;20040;-77
2023/01/17 07:30:01;;;;;;;6.13;0.80;;;0.80;99.90;;;;;;5068153;28;20033;-76
2023/01/17 07:32:27;;;;;;;5.40;1.10;;;0.70;99.90;;;;;;5066881;28;20482;-76
2023/01/17 07:34:56;;;;;;;5.97;0.77;;;0.70;99.90;;;;;;5067283;28;20083;-77
2023/01/17 07:37:22;;;;;;;9.93;1.20;;;1.10;99.90;;;;;;5069209;28;20052;-76
2023/01/17 07:39:48;;;;;;;6.33;0.77;;;0.80;99.90;;;;;;5071364;28;20556;-76
2023/01/17 07:42:14;;;;;;;5.70;1.03;;;0.70;99.90;;;;;;5070748;28;20052;-77
2023/01/17 07:44:42;;;;;;;6.43;1.00;;;0.90;99.90;;;;;;5071819;28;20053;-77
2023/01/17 07:47:08;;;;;;;5.00;0.83;;;0.90;99.90;;;;;;5070924;28;20049;-77
2023/01/17 07:49:34;;;;;;;5.67;1.00;;;1.00;99.90;;;;;;5070180;28;20103;-77
2023/01/17 07:51:59;;;;;;;10.20;1.03;;;0.90;99.90;;;;;;5070415;28;20040;-77
2023/01/17 07:54:25;;;;;;;7.27;1.57;;;0.90;99.90;;;;;;5071678;28;20044;-78
2023/01/17 07:56:51;;;;;;;10.53;1.00;;;0.90;99.90;;;;;;5067319;28;20045;-79
2023/01/17 07:59:17;;;;;;;7.83;1.60;;;0.80;99.90;;;;;;5071151;28;20056;-76
2023/01/17 08:01:43;;;;;;;8.60;0.83;;;0.80;99.90;;;;;;5069996;28;20067;-83
2023/01/17 08:04:09;;;;;;;6.40;1.30;;;0.80;99.90;;;;;;5067524;28;20118;-77
2023/01/17 08:06:46;;;;;;;12.80;1.80;;;0.80;99.90;;;;;;5071035;28;20059;-76
2023/01/17 08:09:12;;;;;;;9.33;1.40;;;1.00;99.90;;;;;;5069185;28;20119;-76
2023/01/17 08:11:38;;;;;;;9.67;1.97;;;1.00;99.90;;;;;;5069943;28;20075;-76
2023/01/17 08:14:04;;;;;;;7.40;1.40;;;1.10;99.90;;;;;;5070405;28;20072;-76
2023/01/17 08:16:29;;;;;;;8.97;1.43;;;1.10;99.90;;;;;;5070703;28;20052;-77
2023/01/17 08:18:55;;;;;;;4.43;1.10;;;1.30;99.90;;;;;;5071315;28;20048;-78
2023/01/17 08:21:22;;;;;;;7.70;1.30;;;1.20;99.90;;;;;;5070631;28;20094;-78
2023/01/17 08:23:51;;;;;;;6.40;1.47;;;1.10;99.90;;;;;;5070086;28;20079;-78
2023/01/17 08:26:21;;;;;;;6.60;1.20;;;1.10;99.90;;;;;;5070291;28;20127;-77
2023/01/17 08:29:00;;;;;;;9.80;1.40;;;1.20;99.90;;;;;;5070639;28;20056;-77
2023/01/17 08:31:29;;;;;;;9.73;1.37;;;1.50;99.90;;;;;;5065929;28;20688;-78
2023/01/17 08:33:56;;;;;;;8.87;1.27;;;1.50;99.90;;;;;;5070449;28;20111;-77
2023/01/17 08:36:24;;;;;;;9.20;1.77;;;1.80;99.90;;;;;;5068941;28;20044;-80
2023/01/17 08:38:51;;;;;;;4.63;1.30;;;1.60;99.90;;;;;;5070598;28;20521;-78
2023/01/17 08:41:18;;;;;;;5.97;1.30;;;1.70;99.90;;;;;;5052528;28;20063;-77
2023/01/17 08:43:46;;;;;;;7.30;1.57;;;1.80;99.90;;;;;;5069491;28;20050;-77
2023/01/17 08:46:12;;;;;;;7.43;2.00;;;1.80;99.90;;;;;;5068646;28;20452;-77
2023/01/17 08:48:38;;;;;;;8.50;2.30;;;1.80;99.90;;;;;;5068593;28;20048;-77
2023/01/17 08:51:04;;;;;;;8.23;1.83;;;2.00;99.90;;;;;;5070560;28;20051;-77
2023/01/17 08:53:29;;;;;;;8.87;1.87;;;1.90;99.90;;;;;;5068392;28;20048;-77
2023/01/17 08:56:00;;;;;;;10.67;2.63;;;2.20;99.90;;;;;;5070273;28;20123;-77
2023/01/17 08:58:27;;;;;;;7.90;2.58;;;1.90;99.90;;;;;;5069164;28;20075;-81
2023/01/17 09:00:53;;;;;;;5.97;2.90;;;2.10;99.90;;;;;;5069987;28;20048;-81
2023/01/17 09:03:19;;;;;;;7.57;2.77;;;2.20;99.90;;;;;;5067413;28;20572;-76
2023/01/17 09:05:45;;;;;;;5.83;2.67;;;2.50;99.90;;;;;;5069578;28;20048;-77
2023/01/17 09:08:10;;;;;;;10.30;2.23;;;2.50;99.90;;;;;;5069624;28;20048;-83
2023/01/17 09:10:36;;;;;;;7.93;1.70;;;2.50;99.90;;;;;;5069912;28;20052;-76
2023/01/17 09:13:05;;;;;;;6.43;1.60;;;2.40;99.90;;;;;;5068689;28;20297;-78
2023/01/17 09:15:30;;;;;;;8.33;2.20;;;2.30;99.90;;;;;;5069663;28;20040;-77
2023/01/17 09:17:56;;;;;;;7.43;2.00;;;2.20;99.90;;;;;;5069277;28;20117;-78
2023/01/17 09:20:23;;;;;;;6.13;1.60;;;2.20;99.90;;;;;;5069860;28;20386;-76
2023/01/17 09:22:50;;;;;;;7.83;2.00;;;2.20;99.90;;;;;;5068699;28;20072;-76
2023/01/17 09:25:15;;;;;;;5.23;1.77;;;2.20;99.90;;;;;;5068936;28;20048;-77
2023/01/17 09:27:45;;;;;;;6.20;2.07;;;2.20;99.90;;;;;;5068988;28;20513;-77
2023/01/17 09:30:11;;;;;;;6.20;1.87;;;2.60;99.90;;;;;;5068746;28;20105;-80
2023/01/17 09:32:37;;;;;;;3.30;0.90;;;2.30;99.90;;;;;;5068778;28;20060;-77
2023/01/17 09:35:06;;;;;;;4.67;3.80;;;2.50;99.90;;;;;;5068958;28;20051;-76
2023/01/17 09:37:31;;;;;;;6.20;0.77;;;2.20;99.90;;;;;;5068958;28;20044;-76
2023/01/17 09:39:57;;;;;;;4.63;4.17;;;2.70;99.90;;;;;;5067205;28;20071;-76
2023/01/17 09:42:33;;;;;;;14.90;13.93;;;2.30;99.90;;;;;;5068437;28;20063;-77
2023/01/17 09:44:59;;;;;;;3.40;3.30;;;2.30;99.90;;;;;;5067087;28;20045;-77
2023/01/17 09:47:40;;;;;;;0.37;0.37;;;2.30;99.90;;;;;;5069242;28;20040;-76
2023/01/17 09:50:17;;;;;;;2.53;0.90;;;2.40;99.90;;;;;;5066967;28;20052;-77
2023/01/17 09:52:43;;;;;;;1.13;0.30;;;2.40;99.90;;;;;;5068364;28;20294;-76
2023/01/17 09:55:16;;;;;;;2.10;0.40;;;2.50;99.90;;;;;;5069299;28;20040;-76
2023/01/17 09:58:17;;;;;;;2.10;2.00;;;2.50;99.90;;;;;;5068996;28;20128;-78
2023/01/17 10:00:56;;;;;;;2.22;2.00;;;2.40;99.90;;;;;;5045607;28;20048;-77
2023/01/17 10:03:59;;;;;;;7.40;3.60;;;2.40;99.90;;;;;;5061678;28;20064;-77
2023/01/17 10:06:43;;;;;;;2.97;2.37;;;2.60;99.90;;;;;;5065150;28;20059;-77
2023/01/17 10:09:32;;;;;;;1.40;0.67;;;2.60;99.90;;;;;;5065697;28;20052;-77
2023/01/17 10:12:04;;;;;;;7.03;6.63;;;2.60;99.90;;;;;;5063453;28;20426;-80
2023/01/17 10:14:37;;;;;;;;;;;2.40;99.90;;;;;;5068458;28;20528;-77
2023/01/17 10:17:30;;;;;;;4.70;0.70;;;2.50;99.90;;;;;;5065389;28;19927;-77
2023/01/17 10:20:33;;;;;;;11.87;11.00;;;2.50;99.90;;;;;;5064652;28;20423;-76
2023/01/17 10:23:20;;;;;;;18.53;17.30;;;1.80;99.90;;;;;;5067154;28;20048;-77
2023/01/17 10:25:53;;;;;;;3.30;2.30;;;1.50;99.90;;;;;;5067141;28;20056;-81
2023/01/17 10:28:26;;;;;;;3.03;1.00;;;1.50;99.90;;;;;;5068390;28;20044;-77
2023/01/17 10:30:59;;;;;;;3.37;1.17;;;1.50;99.90;;;;;;5067172;28;20383;-78
2023/01/17 10:33:34;;;;;;;3.30;0.73;;;1.40;99.90;;;;;;5067612;28;20131;-78
2023/01/17 10:36:07;;;;;;;0.57;0.30;;;1.30;99.90;;;;;;5063534;28;20051;-76
2023/01/17 10:38:37;;;;;;;2.23;0.37;;;1.80;99.90;;;;;;5066198;28;20560;-77
2023/01/17 10:41:20;;;;;;;1.00;0.47;;;2.30;99.90;;;;;;5065344;28;20040;-76
2023/01/17 10:43:56;;;;;;;3.80;0.97;;;2.80;99.90;;;;;;5066059;28;20544;-76
2023/01/17 10:46:28;;;;;;;4.80;2.97;;;3.20;99.90;;;;;;5068720;28;20041;-77
2023/01/17 10:48:55;;;;;;;5.73;2.83;;;3.30;99.90;;;;;;5068610;28;20048;-77
2023/01/17 10:51:48;;;;;;;10.00;4.20;;;3.70;99.90;;;;;;5067636;28;20055;-79
2023/01/17 10:54:17;;;;;;;7.10;2.83;;;4.10;99.90;;;;;;5065357;28;20253;-78
2023/01/17 10:56:43;;;;;;;5.17;2.37;;;3.90;99.90;;;;;;5067775;28;20041;-77
2023/01/17 10:59:27;;;;;;;5.30;4.80;;;4.40;99.90;;;;;;5067723;28;20106;-77
2023/01/17 11:01:53;;;;;;;6.70;6.10;;;4.30;99.90;;;;;;5066825;28;20095;-78
2023/01/17 11:04:37;;;;;;;19.13;17.80;;;4.40;99.90;;;;;;5066423;28;20494;-77
2023/01/17 11:07:13;;;;;;;6.43;4.13;;;4.00;99.90;;;;;;5067566;28;20052;-76
2023/01/17 11:09:44;;;;;;;4.50;4.07;;;4.00;99.90;;;;;;5065488;28;20058;-78
2023/01/17 11:12:28;;;;;;;3.22;2.53;;;4.30;99.90;;;;;;5065566;28;20048;-76
2023/01/17 11:15:07;;;;;;;3.57;3.17;;;5.10;99.90;;;;;;5072187;28;20040;-76
2023/01/17 11:17:36;;;;;;;9.07;3.53;;;5.50;99.90;;;;;;5069740;28;20159;-80
2023/01/17 11:20:24;;;;;;;4.97;4.50;;;5.90;99.90;;;;;;5054317;28;20048;-78
2023/01/17 11:23:02;;;;;;;5.80;3.83;;;6.20;99.90;;;;;;5070850;28;20039;-78
2023/01/17 11:25:32;;;;;;;8.83;3.83;;;6.30;99.90;;;;;;5071769;28;20060;-77
2023/01/17 11:28:05;;;;;;;5.80;3.47;;;6.30;99.90;;;;;;5069738;28;20052;-79
2023/01/17 11:30:31;;;;;;;8.00;6.93;;;6.60;99.90;;;;;;5069388;28;20059;-77
2023/01/17 11:32:59;;;;;;;9.80;8.83;;;6.30;99.90;;;;;;5072177;28;20052;-76
2023/01/17 11:35:35;;;;;;;10.03;9.13;;;6.70;99.90;;;;;;5068859;28;20505;-77
2023/01/17 11:38:01;;;;;;;7.73;7.03;;;6.70;99.90;;;;;;5068073;28;20045;-76
2023/01/17 11:40:37;;;;;;;6.23;5.63;;;6.80;99.90;;;;;;5071665;28;20063;-76
2023/01/17 11:43:13;;;;;;;7.27;4.77;;;6.90;99.90;;;;;;5069597;28;20052;-77
2023/01/17 11:45:39;;;;;;;11.70;10.80;;;6.70;99.90;;;;;;5071401;28;20059;-77
2023/01/17 11:48:08;;;;;;;8.03;5.87;;;6.60;99.90;;;;;;5071621;28;20478;-77
2023/01/17 11:50:40;;;;;;;8.40;7.60;;;6.60;99.90;;;;;;5071592;28;20062;-77
2023/01/17 11:53:21;;;;;;;8.30;6.27;;;6.60;99.90;;;;;;5070409;28;20084;-76
2023/01/17 11:55:58;;;;;;;9.73;8.90;;;6.60;99.90;;;;;;5071498;28;20091;-78
2023/01/17 11:58:26;;;;;;;6.17;5.67;;;6.90;99.90;;;;;;5067736;28;20402;-75
2023/01/17 12:01:20;;;;;;;8.23;5.53;;;6.60;99.90;;;;;;5069810;28;20094;-75
2023/01/17 12:04:11;;;;;;;3.80;2.30;;;6.60;99.90;;;;;;5068062;28;20052;-76
2023/01/17 12:06:36;;;;;;;11.70;4.47;;;5.80;99.90;;;;;;5068820;28;20105;-77
2023/01/17 12:09:10;;;;;;;4.33;2.30;;;5.50;99.90;;;;;;5071398;28;20128;-78
2023/01/17 12:15:06;;;;;;;84.53;77.32;;;5.00;99.90;;;;;;5067828;28;20052;-76
2023/01/17 12:17:59;;;;;;;4.07;1.43;;;4.60;99.90;;;;;;5069195;28;20051;-78
2023/01/17 12:20:40;;;;;;;6.17;3.97;;;4.90;99.90;;;;;;5070957;28;20411;-77
2023/01/17 12:23:33;;;;;;;6.07;1.95;;;5.00;99.90;;;;;;5068215;28;20516;-76
2023/01/17 12:26:57;;;;;;;4.47;1.30;;;5.00;99.90;;;;;;5070829;28;20571;-78
2023/01/17 12:29:51;;;;;;;5.90;1.30;;;5.30;99.90;;;;;;5047319;28;20049;-76
2023/01/17 12:33:02;;;;;;;4.40;2.47;;;5.20;99.90;;;;;;5069133;28;20056;-76
2023/01/17 12:35:53;;;;;;;8.73;1.20;;;5.10;99.90;;;;;;5059688;28;20402;-75
2023/01/17 12:38:33;;;;;;;3.88;1.25;;;5.20;99.90;;;;;;5069038;28;20100;-76
2023/01/17 12:41:05;;;;;;;5.07;1.00;;;5.20;99.90;;;;;;5067464;28;20556;-80
2023/01/17 12:43:36;;;;;;;7.23;4.20;;;5.30;99.90;;;;;;5049472;28;20052;-76
2023/01/17 12:46:19;;;;;;;36.57;34.07;;;5.40;99.90;;;;;;5070009;28;20119;-77
2023/01/17 12:48:51;;;;;;;13.43;12.13;;;5.70;99.90;;;;;;5068808;28;20079;-76
2023/01/17 12:51:19;;;;;;;;;;;6.00;99.90;;;;;;5070377;28;20056;-77
2023/01/17 12:54:16;;;;;;;5.20;1.40;;;6.30;99.90;;;;;;5068107;28;19924;-77
2023/01/17 12:57:01;;;;;;;3.17;2.37;;;6.50;99.90;;;;;;5068415;28;20048;-77
2023/01/17 12:59:41;;;;;;;7.20;2.60;;;6.30;99.90;;;;;;5067866;28;20494;-77
2023/01/17 13:02:32;;;;;;;4.95;3.05;;;6.30;99.90;;;;;;5068388;28;20056;-78
2023/01/17 13:05:07;;;;;;;7.00;4.07;;;5.70;99.90;;;;;;5068979;28;20064;-76
2023/01/17 13:07:43;;;;;;;6.83;6.23;;;5.80;99.90;;;;;;5068379;28;20071;-76
2023/01/17 13:10:32;;;;;;;8.87;5.53;;;5.70;99.90;;;;;;5067471;28;20060;-77
2023/01/17 13:13:13;;;;;;;235.50;218.30;;;5.90;99.90;;;;;;5066726;28;20048;-77
2023/01/17 13:15:40;;;;;;;8.95;5.95;;;5.60;99.90;;;;;;5068893;28;20075;-77
2023/01/17 13:18:13;;;;;;;5.60;4.43;;;5.50;99.90;;;;;;5066103;28;20044;-76
2023/01/17 13:21:05;;;;;;;4.20;1.20;;;5.30;99.90;;;;;;5069189;28;20049;-76
2023/01/17 13:23:49;;;;;;;3.92;1.90;;;5.10;99.90;;;;;;5067612;28;20147;-78
2023/01/17 13:26:35;;;;;;;4.93;2.70;;;4.80;99.90;;;;;;5066582;28;20744;-80
2023/01/17 13:29:10;;;;;;;4.60;1.37;;;4.80;99.90;;;;;;5066814;28;20126;-77
2023/01/17 13:31:47;;;;;;;5.77;3.47;;;4.70;99.90;;;;;;5068023;28;20032;-77
2023/01/17 13:34:21;;;;;;;21.80;20.33;;;4.60;99.90;;;;;;5069415;28;20041;-77
2023/01/17 13:36:58;;;;;;;4.40;2.40;;;4.40;99.90;;;;;;5081016;28;20052;-76
2023/01/17 13:39:32;;;;;;;5.57;1.83;;;4.30;99.90;;;;;;5068855;28;20075;-76
2023/01/17 13:42:21;;;;;;;8.37;6.93;;;4.30;99.90;;;;;;5064974;28;20418;-76
2023/01/17 13:44:47;;;;;;;9.87;5.33;;;4.20;99.90;;;;;;5068843;28;20044;-77
2023/01/17 13:47:16;;;;;;;6.17;4.77;;;4.30;99.90;;;;;;5069257;28;20040;-76
2023/01/17 13:49:54;;;;;;;7.77;3.57;;;4.50;99.90;;;;;;5068714;28;20044;-75
2023/01/17 13:52:22;;;;;;;31.37;28.07;;;4.50;99.90;;;;;;5068571;28;20052;-76
2023/01/17 13:54:56;;;;;;;17.23;15.77;;;4.50;99.90;;;;;;5068104;28;20095;-76
2023/01/17 13:57:24;;;;;;;5.73;5.30;;;4.50;99.90;;;;;;5067701;28;20044;-78
2023/01/17 13:59:57;;;;;;;8.90;1.90;;;4.50;99.90;;;;;;5068400;28;20395;-76
2023/01/17 14:02:32;;;;;;;1.73;1.17;;;4.50;99.90;;;;;;5068291;28;20056;-76
2023/01/17 14:05:29;;;;;;;2.47;1.03;;;4.50;99.90;;;;;;5065498;28;20147;-76
2023/01/17 14:08:01;;;;;;;5.67;4.90;;;4.60;99.90;;;;;;5066179;28;20098;-77
2023/01/17 14:10:36;;;;;;;12.57;11.20;;;4.40;99.90;;;;;;5061265;28;20050;-75
2023/01/17 14:13:03;;;;;;;8.93;6.90;;;4.40;99.90;;;;;;5060310;28;20056;-77
2023/01/17 14:15:32;;;;;;;8.43;3.70;;;4.30;99.90;;;;;;5061388;28;20048;-76
2023/01/17 14:18:03;;;;;;;5.20;2.47;;;4.30;99.90;;;;;;5067419;28;20123;-76
2023/01/17 14:20:41;;;;;;;5.03;2.28;;;4.10;99.90;;;;;;5062982;28;20040;-76
2023/01/17 14:23:31;;;;;;;5.60;1.70;;;4.10;99.90;;;;;;5065692;28;20048;-76
2023/01/17 14:26:11;;;;;;;5.13;1.20;;;4.00;99.90;;;;;;5068025;28;20555;-76
2023/01/17 14:28:36;;;;;;;69.17;64.90;;;4.00;99.90;;;;;;5065859;28;20040;-79
2023/01/17 14:31:09;;;;;;;14.50;11.50;;;4.00;99.90;;;;;;5068107;28;20411;-76
2023/01/17 14:33:40;;;;;;;4.97;1.47;;;4.00;99.90;;;;;;5065401;28;20529;-76
2023/01/17 14:36:14;;;;;;;2.55;1.00;;;3.90;99.90;;;;;;5065353;28;20048;-76
2023/01/17 14:38:43;;;;;;;5.17;1.17;;;3.80;99.90;;;;;;5065224;28;20501;-80
2023/01/17 14:41:16;;;;;;;184.90;169.80;;;3.70;99.90;;;;;;5068194;28;20048;-76
2023/01/17 14:43:44;;;;;;;5.20;1.13;;;3.90;99.90;;;;;;5065812;28;20072;-76